sensor_id;sensor_type;location;lat;lon;timestamp;temperature;humidity
40952;DHT22;26682;51.660;19.338;2023-03-01T00:02:14;-4.90;99.90
40952;DHT22;26682;51.660;19.338;2023-03-01T00:04:56;-4.90;99.90
40952;DHT22;26682;51.660;19.338;2023-03-01T00:07:39;-4.90;99.90
40952;DHT22;26682;51.660;19.338;2023-03-01T00:10:22;-5.00;99.90
40952;DHT22;26682;51.660;19.338;2023-03-01T00:13:04;-5.10;99.90
40952;DHT22;26682;51.660;19.338;2023-03-01T00:15:47;-5.10;99.90
40952;DHT22;26682;51.660;19.338;2023-03-01T00:18:29;-5.10;99.90
40952;DHT22;26682;51.660;19.338;2023-03-01T00:21:12;-5.10;99.90
40952;DHT22;26682;51.660;19.338;2023-03-01T00:23:55;-5.20;99.90
40952;DHT22;26682;51.660;19.338;2023-03-01T00:26:38;-5.20;99.90
40952;DHT22;26682;51.660;19.338;2023-03-01T00:29:21;-5.20;99.90
40952;DHT22;26682;51.660;19.338;2023-03-01T00:32:04;-5.20;99.90
40952;DHT22;26682;51.660;19.338;2023-03-01T00:34:47;-5.30;99.90
40952;DHT22;26682;51.660;19.338;2023-03-01T00:37:36;-5.30;99.90
40952;DHT22;26682;51.660;19.338;2023-03-01T00:40:19;-5.30;99.90
40952;DHT22;26682;51.660;19.338;2023-03-01T00:43:01;-5.30;99.90
40952;DHT22;26682;51.660;19.338;2023-03-01T00:45:44;-5.40;99.90
40952;DHT22;26682;51.660;19.338;2023-03-01T00:48:26;-5.40;99.90
40952;DHT22;26682;51.660;19.338;2023-03-01T00:51:28;-5.40;99.90
40952;DHT22;26682;51.660;19.338;2023-03-01T00:54:11;-5.30;99.90
40952;DHT22;26682;51.660;19.338;2023-03-01T00:56:53;-5.30;99.90
40952;DHT22;26682;51.660;19.338;2023-03-01T00:59:36;-5.30;99.90
40952;DHT22;26682;51.660;19.338;2023-03-01T01:02:19;-5.30;99.90
40952;DHT22;26682;51.660;19.338;2023-03-01T01:05:01;-5.40;99.90
40952;DHT22;26682;51.660;19.338;2023-03-01T01:07:44;-5.40;99.90
40952;DHT22;26682;51.660;19.338;2023-03-01T01:10:26;-5.40;99.90
40952;DHT22;26682;51.660;19.338;2023-03-01T01:13:09;-5.40;99.90
40952;DHT22;26682;51.660;19.338;2023-03-01T01:15:51;-5.40;99.90
40952;DHT22;26682;51.660;19.338;2023-03-01T01:18:34;-5.50;99.90
40952;DHT22;26682;51.660;19.338;2023-03-01T01:21:19;-5.50;99.90
40952;DHT22;26682;51.660;19.338;2023-03-01T01:24:04;-5.50;99.90
40952;DHT22;26682;51.660;19.338;2023-03-01T01:26:47;-5.50;99.90
40952;DHT22;26682;51.660;19.338;2023-03-01T01:29:29;-5.50;99.90
40952;DHT22;26682;51.660;19.338;2023-03-01T01:32:11;-5.50;99.90
40952;DHT22;26682;51.660;19.338;2023-03-01T01:34:54;-5.50;99.90
40952;DHT22;26682;51.660;19.338;2023-03-01T01:37:36;-5.50;99.90
40952;DHT22;26682;51.660;19.338;2023-03-01T01:40:19;-5.50;99.90
40952;DHT22;26682;51.660;19.338;2023-03-01T01:43:02;-5.50;99.90
40952;DHT22;26682;51.660;19.338;2023-03-01T01:45:44;-5.50;99.90
40952;DHT22;26682;51.660;19.338;2023-03-01T01:48:34;-5.60;99.90
40952;DHT22;26682;51.660;19.338;2023-03-01T01:51:28;-5.60;99.90
40952;DHT22;26682;51.660;19.338;2023-03-01T01:54:25;-5.60;99.90
40952;DHT22;26682;51.660;19.338;2023-03-01T01:57:14;-5.60;99.90
40952;DHT22;26682;51.660;19.338;2023-03-01T01:59:59;-5.60;99.90
40952;DHT22;26682;51.660;19.338;2023-03-01T02:02:44;-5.60;99.90
40952;DHT22;26682;51.660;19.338;2023-03-01T02:08:38;-5.60;99.90
40952;DHT22;26682;51.660;19.338;2023-03-01T02:11:23;-5.70;99.90
40952;DHT22;26682;51.660;19.338;2023-03-01T02:14:06;-5.70;99.90
40952;DHT22;26682;51.660;19.338;2023-03-01T02:16:49;-5.80;99.90
40952;DHT22;26682;51.660;19.338;2023-03-01T02:19:48;-5.80;99.90
40952;DHT22;26682;51.660;19.338;2023-03-01T02:22:36;-5.80;99.90
40952;DHT22;26682;51.660;19.338;2023-03-01T02:25:52;-5.80;99.90
40952;DHT22;26682;51.660;19.338;2023-03-01T02:28:40;-5.80;99.90
40952;DHT22;26682;51.660;19.338;2023-03-01T02:31:23;-5.80;99.90
40952;DHT22;26682;51.660;19.338;2023-03-01T02:34:32;-5.80;99.90
40952;DHT22;26682;51.660;19.338;2023-03-01T02:37:16;-5.80;99.90
40952;DHT22;26682;51.660;19.338;2023-03-01T02:40:07;-5.70;99.90
40952;DHT22;26682;51.660;19.338;2023-03-01T02:42:56;-5.70;99.90
40952;DHT22;26682;51.660;19.338;2023-03-01T02:45:52;-5.70;99.90
40952;DHT22;26682;51.660;19.338;2023-03-01T02:48:44;-5.80;99.90
40952;DHT22;26682;51.660;19.338;2023-03-01T02:51:31;-5.90;99.90
40952;DHT22;26682;51.660;19.338;2023-03-01T02:54:39;-5.90;99.90
40952;DHT22;26682;51.660;19.338;2023-03-01T02:57:23;-6.00;99.90
40952;DHT22;26682;51.660;19.338;2023-03-01T03:00:28;-6.00;99.90
40952;DHT22;26682;51.660;19.338;2023-03-01T03:03:17;-6.10;99.90
40952;DHT22;26682;51.660;19.338;2023-03-01T03:06:01;-6.00;99.90
40952;DHT22;26682;51.660;19.338;2023-03-01T03:08:44;-5.90;99.90
40952;DHT22;26682;51.660;19.338;2023-03-01T03:11:27;-6.00;99.90
40952;DHT22;26682;51.660;19.338;2023-03-01T03:14:11;-6.00;99.90
40952;DHT22;26682;51.660;19.338;2023-03-01T03:16:59;-5.90;99.90
40952;DHT22;26682;51.660;19.338;2023-03-01T03:19:42;-6.00;99.90
40952;DHT22;26682;51.660;19.338;2023-03-01T03:22:27;-6.00;99.90
40952;DHT22;26682;51.660;19.338;2023-03-01T03:25:10;-6.10;99.90
40952;DHT22;26682;51.660;19.338;2023-03-01T03:27:54;-6.10;99.90
40952;DHT22;26682;51.660;19.338;2023-03-01T03:30:41;-6.00;99.90
40952;DHT22;26682;51.660;19.338;2023-03-01T03:33:24;-6.10;99.90
40952;DHT22;26682;51.660;19.338;2023-03-01T03:36:06;-6.10;99.90
40952;DHT22;26682;51.660;19.338;2023-03-01T03:38:49;-6.10;99.90
40952;DHT22;26682;51.660;19.338;2023-03-01T03:41:34;-6.20;99.90
40952;DHT22;26682;51.660;19.338;2023-03-01T03:44:17;-6.20;99.90
40952;DHT22;26682;51.660;19.338;2023-03-01T03:46:59;-6.20;99.90
40952;DHT22;26682;51.660;19.338;2023-03-01T03:49:42;-6.20;99.90
40952;DHT22;26682;51.660;19.338;2023-03-01T03:52:25;-6.20;99.90
40952;DHT22;26682;51.660;19.338;2023-03-01T03:55:10;-6.30;99.90
40952;DHT22;26682;51.660;19.338;2023-03-01T03:57:52;-6.30;99.90
40952;DHT22;26682;51.660;19.338;2023-03-01T04:00:41;-6.30;99.90
40952;DHT22;26682;51.660;19.338;2023-03-01T04:03:25;-6.40;99.90
40952;DHT22;26682;51.660;19.338;2023-03-01T04:06:08;-6.40;99.90
40952;DHT22;26682;51.660;19.338;2023-03-01T04:08:50;-6.30;99.90
40952;DHT22;26682;51.660;19.338;2023-03-01T04:11:34;-6.30;99.90
40952;DHT22;26682;51.660;19.338;2023-03-01T04:14:16;-6.30;99.90
40952;DHT22;26682;51.660;19.338;2023-03-01T04:16:59;-6.30;99.90
40952;DHT22;26682;51.660;19.338;2023-03-01T04:19:41;-6.40;99.90
40952;DHT22;26682;51.660;19.338;2023-03-01T04:22:26;-6.40;99.90
40952;DHT22;26682;51.660;19.338;2023-03-01T04:25:11;-6.40;99.90
40952;DHT22;26682;51.660;19.338;2023-03-01T04:27:56;-6.40;99.90
40952;DHT22;26682;51.660;19.338;2023-03-01T04:30:39;-6.40;99.90
40952;DHT22;26682;51.660;19.338;2023-03-01T04:33:22;-6.40;99.90
40952;DHT22;26682;51.660;19.338;2023-03-01T04:36:04;-6.50;99.90
40952;DHT22;26682;51.660;19.338;2023-03-01T04:38:47;-6.50;99.90
40952;DHT22;26682;51.660;19.338;2023-03-01T04:41:30;-6.50;99.90
40952;DHT22;26682;51.660;19.338;2023-03-01T04:44:12;-6.50;99.90
40952;DHT22;26682;51.660;19.338;2023-03-01T04:46:56;-6.50;99.90
40952;DHT22;26682;51.660;19.338;2023-03-01T04:49:38;-6.50;99.90
40952;DHT22;26682;51.660;19.338;2023-03-01T04:52:20;-6.50;99.90
40952;DHT22;26682;51.660;19.338;2023-03-01T04:55:03;-6.50;99.90
40952;DHT22;26682;51.660;19.338;2023-03-01T04:57:46;-6.50;99.90
40952;DHT22;26682;51.660;19.338;2023-03-01T05:00:28;-6.40;99.90
40952;DHT22;26682;51.660;19.338;2023-03-01T05:03:11;-6.40;99.90
40952;DHT22;26682;51.660;19.338;2023-03-01T05:05:53;-6.40;99.90
40952;DHT22;26682;51.660;19.338;2023-03-01T05:08:37;-6.40;99.90
40952;DHT22;26682;51.660;19.338;2023-03-01T05:11:20;-6.40;99.90
40952;DHT22;26682;51.660;19.338;2023-03-01T05:14:07;-6.40;99.90
40952;DHT22;26682;51.660;19.338;2023-03-01T05:16:50;-6.30;99.90
40952;DHT22;26682;51.660;19.338;2023-03-01T05:19:33;-6.30;99.90
40952;DHT22;26682;51.660;19.338;2023-03-01T05:22:16;-6.30;99.90
40952;DHT22;26682;51.660;19.338;2023-03-01T05:24:58;-6.20;99.90
40952;DHT22;26682;51.660;19.338;2023-03-01T05:27:41;-6.20;99.90
40952;DHT22;26682;51.660;19.338;2023-03-01T05:30:23;-6.20;99.90
40952;DHT22;26682;51.660;19.338;2023-03-01T05:33:07;-6.20;99.90
40952;DHT22;26682;51.660;19.338;2023-03-01T05:36:00;-6.20;99.90
40952;DHT22;26682;51.660;19.338;2023-03-01T05:38:42;-6.20;99.90
40952;DHT22;26682;51.660;19.338;2023-03-01T05:41:26;-6.20;99.90
40952;DHT22;26682;51.660;19.338;2023-03-01T05:44:08;-6.20;99.90
40952;DHT22;26682;51.660;19.338;2023-03-01T05:46:51;-6.20;99.90
40952;DHT22;26682;51.660;19.338;2023-03-01T05:49:34;-6.20;99.90
40952;DHT22;26682;51.660;19.338;2023-03-01T05:52:18;-6.10;99.90
40952;DHT22;26682;51.660;19.338;2023-03-01T05:55:01;-6.10;99.90
40952;DHT22;26682;51.660;19.338;2023-03-01T05:57:44;-6.00;99.90
40952;DHT22;26682;51.660;19.338;2023-03-01T06:00:28;-5.90;99.90
40952;DHT22;26682;51.660;19.338;2023-03-01T06:03:13;-5.70;99.90
40952;DHT22;26682;51.660;19.338;2023-03-01T06:05:57;-5.60;99.90
40952;DHT22;26682;51.660;19.338;2023-03-01T06:08:40;-5.40;99.90
40952;DHT22;26682;51.660;19.338;2023-03-01T06:11:23;-5.20;99.90
40952;DHT22;26682;51.660;19.338;2023-03-01T06:14:06;-4.90;99.90
40952;DHT22;26682;51.660;19.338;2023-03-01T06:16:50;-4.70;99.90
40952;DHT22;26682;51.660;19.338;2023-03-01T06:19:32;-4.40;99.90
40952;DHT22;26682;51.660;19.338;2023-03-01T06:22:15;-4.20;99.90
40952;DHT22;26682;51.660;19.338;2023-03-01T06:24:57;-3.90;99.90
40952;DHT22;26682;51.660;19.338;2023-03-01T06:27:40;-3.70;99.90
40952;DHT22;26682;51.660;19.338;2023-03-01T06:30:25;-3.60;41.70
40952;DHT22;26682;51.660;19.338;2023-03-01T06:33:08;-3.30;9.90
40952;DHT22;26682;51.660;19.338;2023-03-01T06:35:51;-3.20;1.00
40952;DHT22;26682;51.660;19.338;2023-03-01T06:38:36;-3.00;1.00
40952;DHT22;26682;51.660;19.338;2023-03-01T06:41:18;-2.80;1.00
40952;DHT22;26682;51.660;19.338;2023-03-01T06:44:01;-2.60;1.00
40952;DHT22;26682;51.660;19.338;2023-03-01T06:46:44;-2.30;99.90
40952;DHT22;26682;51.660;19.338;2023-03-01T06:49:27;-2.00;99.90
40952;DHT22;26682;51.660;19.338;2023-03-01T06:52:09;-1.70;99.90
40952;DHT22;26682;51.660;19.338;2023-03-01T06:54:52;-1.50;1.00
40952;DHT22;26682;51.660;19.338;2023-03-01T06:57:34;-1.30;1.00
40952;DHT22;26682;51.660;19.338;2023-03-01T07:00:17;-1.10;99.90
40952;DHT22;26682;51.660;19.338;2023-03-01T07:03:01;-0.90;99.90
40952;DHT22;26682;51.660;19.338;2023-03-01T07:05:44;-1.00;99.90
40952;DHT22;26682;51.660;19.338;2023-03-01T07:08:27;-0.80;99.90
40952;DHT22;26682;51.660;19.338;2023-03-01T07:11:09;-0.80;1.00
40952;DHT22;26682;51.660;19.338;2023-03-01T07:13:52;-0.90;99.90
40952;DHT22;26682;51.660;19.338;2023-03-01T07:16:34;-0.80;99.90
40952;DHT22;26682;51.660;19.338;2023-03-01T07:19:17;-0.70;99.90
40952;DHT22;26682;51.660;19.338;2023-03-01T07:22:00;-0.50;99.90
40952;DHT22;26682;51.660;19.338;2023-03-01T07:24:43;-0.30;99.90
40952;DHT22;26682;51.660;19.338;2023-03-01T07:27:25;-0.30;99.90
40952;DHT22;26682;51.660;19.338;2023-03-01T07:30:09;-0.30;99.90
40952;DHT22;26682;51.660;19.338;2023-03-01T07:32:52;-0.10;99.90
40952;DHT22;26682;51.660;19.338;2023-03-01T07:35:36;-0.10;99.90
40952;DHT22;26682;51.660;19.338;2023-03-01T07:38:19;0.00;99.90
40952;DHT22;26682;51.660;19.338;2023-03-01T07:41:03;0.10;1.00
40952;DHT22;26682;51.660;19.338;2023-03-01T07:43:45;0.30;26.00
40952;DHT22;26682;51.660;19.338;2023-03-01T07:46:28;0.50;99.90
40952;DHT22;26682;51.660;19.338;2023-03-01T07:49:11;0.70;99.90
40952;DHT22;26682;51.660;19.338;2023-03-01T07:51:53;0.80;99.90
40952;DHT22;26682;51.660;19.338;2023-03-01T07:54:36;0.80;99.90
40952;DHT22;26682;51.660;19.338;2023-03-01T07:57:18;1.00;99.90
40952;DHT22;26682;51.660;19.338;2023-03-01T08:00:01;1.20;99.90
40952;DHT22;26682;51.660;19.338;2023-03-01T08:02:52;1.10;99.90
40952;DHT22;26682;51.660;19.338;2023-03-01T08:05:35;1.30;99.90
40952;DHT22;26682;51.660;19.338;2023-03-01T08:08:17;1.30;99.90
40952;DHT22;26682;51.660;19.338;2023-03-01T08:11:02;1.40;99.90
40952;DHT22;26682;51.660;19.338;2023-03-01T08:13:47;1.40;99.90
40952;DHT22;26682;51.660;19.338;2023-03-01T08:16:34;1.60;1.00
40952;DHT22;26682;51.660;19.338;2023-03-01T08:19:17;1.70;1.00
40952;DHT22;26682;51.660;19.338;2023-03-01T08:22:03;1.90;53.60
40952;DHT22;26682;51.660;19.338;2023-03-01T08:24:46;2.00;99.90
40952;DHT22;26682;51.660;19.338;2023-03-01T08:27:29;2.10;99.90
40952;DHT22;26682;51.660;19.338;2023-03-01T08:30:11;2.20;1.00
40952;DHT22;26682;51.660;19.338;2023-03-01T08:32:54;2.20;99.90
40952;DHT22;26682;51.660;19.338;2023-03-01T08:35:37;2.40;99.90
40952;DHT22;26682;51.660;19.338;2023-03-01T08:38:19;2.40;40.50
40952;DHT22;26682;51.660;19.338;2023-03-01T08:41:03;2.50;99.90
40952;DHT22;26682;51.660;19.338;2023-03-01T08:43:46;2.40;1.00
40952;DHT22;26682;51.660;19.338;2023-03-01T08:46:37;2.70;1.00
40952;DHT22;26682;51.660;19.338;2023-03-01T08:49:20;2.60;99.90
40952;DHT22;26682;51.660;19.338;2023-03-01T08:52:02;2.50;1.00
40952;DHT22;26682;51.660;19.338;2023-03-01T08:54:47;2.50;1.00
40952;DHT22;26682;51.660;19.338;2023-03-01T08:57:29;2.40;1.00
40952;DHT22;26682;51.660;19.338;2023-03-01T09:00:12;2.60;1.00
40952;DHT22;26682;51.660;19.338;2023-03-01T09:02:58;2.60;1.00
40952;DHT22;26682;51.660;19.338;2023-03-01T09:05:40;2.70;1.00
40952;DHT22;26682;51.660;19.338;2023-03-01T09:08:23;2.70;1.00
40952;DHT22;26682;51.660;19.338;2023-03-01T09:11:07;2.70;1.00
40952;DHT22;26682;51.660;19.338;2023-03-01T09:13:50;2.80;1.00
40952;DHT22;26682;51.660;19.338;2023-03-01T09:16:32;2.90;1.00
40952;DHT22;26682;51.660;19.338;2023-03-01T09:19:18;3.00;1.00
40952;DHT22;26682;51.660;19.338;2023-03-01T09:22:02;2.90;1.40
40952;DHT22;26682;51.660;19.338;2023-03-01T09:24:44;3.00;5.60
40952;DHT22;26682;51.660;19.338;2023-03-01T09:27:27;3.10;10.30
40952;DHT22;26682;51.660;19.338;2023-03-01T09:30:10;3.00;18.10
40952;DHT22;26682;51.660;19.338;2023-03-01T09:32:53;3.10;16.80
40952;DHT22;26682;51.660;19.338;2023-03-01T09:35:35;3.10;23.10
40952;DHT22;26682;51.660;19.338;2023-03-01T09:38:18;3.10;47.10
40952;DHT22;26682;51.660;19.338;2023-03-01T09:41:00;3.30;54.10
40952;DHT22;26682;51.660;19.338;2023-03-01T09:43:57;3.30;63.20
40952;DHT22;26682;51.660;19.338;2023-03-01T09:46:43;3.30;70.00
40952;DHT22;26682;51.660;19.338;2023-03-01T09:49:39;3.30;79.70
40952;DHT22;26682;51.660;19.338;2023-03-01T09:52:30;3.40;88.00
40952;DHT22;26682;51.660;19.338;2023-03-01T09:55:20;3.40;86.60
40952;DHT22;26682;51.660;19.338;2023-03-01T10:04:29;3.60;86.00
40952;DHT22;26682;51.660;19.338;2023-03-01T10:07:30;3.80;85.40
40952;DHT22;26682;51.660;19.338;2023-03-01T10:13:23;3.80;85.40
40952;DHT22;26682;51.660;19.338;2023-03-01T10:16:41;3.90;85.90
40952;DHT22;26682;51.660;19.338;2023-03-01T10:19:27;3.90;86.70
40952;DHT22;26682;51.660;19.338;2023-03-01T10:22:27;4.00;88.70
40952;DHT22;26682;51.660;19.338;2023-03-01T10:25:13;4.10;89.90
40952;DHT22;26682;51.660;19.338;2023-03-01T10:28:03;4.20;88.00
40952;DHT22;26682;51.660;19.338;2023-03-01T10:30:47;4.20;88.80
40952;DHT22;26682;51.660;19.338;2023-03-01T10:33:33;4.00;89.70
40952;DHT22;26682;51.660;19.338;2023-03-01T10:36:17;3.90;87.70
40952;DHT22;26682;51.660;19.338;2023-03-01T10:39:13;3.90;88.70
40952;DHT22;26682;51.660;19.338;2023-03-01T10:42:05;4.00;88.00
40952;DHT22;26682;51.660;19.338;2023-03-01T10:44:49;4.10;83.80
40952;DHT22;26682;51.660;19.338;2023-03-01T10:47:31;4.30;88.50
40952;DHT22;26682;51.660;19.338;2023-03-01T10:50:22;4.50;86.00
40952;DHT22;26682;51.660;19.338;2023-03-01T10:53:05;4.60;86.70
40952;DHT22;26682;51.660;19.338;2023-03-01T10:56:08;4.40;84.00
40952;DHT22;26682;51.660;19.338;2023-03-01T10:59:03;4.40;85.70
40952;DHT22;26682;51.660;19.338;2023-03-01T11:01:45;4.30;85.40
40952;DHT22;26682;51.660;19.338;2023-03-01T11:04:29;4.30;82.30
40952;DHT22;26682;51.660;19.338;2023-03-01T11:07:11;4.40;81.90
40952;DHT22;26682;51.660;19.338;2023-03-01T11:09:55;4.50;81.70
40952;DHT22;26682;51.660;19.338;2023-03-01T11:12:38;4.50;79.90
40952;DHT22;26682;51.660;19.338;2023-03-01T11:15:24;4.50;80.80
40952;DHT22;26682;51.660;19.338;2023-03-01T11:18:20;4.60;80.00
40952;DHT22;26682;51.660;19.338;2023-03-01T11:21:12;4.70;78.60
40952;DHT22;26682;51.660;19.338;2023-03-01T11:23:55;4.60;77.70
40952;DHT22;26682;51.660;19.338;2023-03-01T11:26:41;4.70;77.80
40952;DHT22;26682;51.660;19.338;2023-03-01T11:29:40;4.80;77.40
40952;DHT22;26682;51.660;19.338;2023-03-01T11:32:39;4.80;77.00
40952;DHT22;26682;51.660;19.338;2023-03-01T11:35:27;4.80;75.50
40952;DHT22;26682;51.660;19.338;2023-03-01T11:41:24;4.70;72.20
40952;DHT22;26682;51.660;19.338;2023-03-01T11:44:25;4.90;76.00
40952;DHT22;26682;51.660;19.338;2023-03-01T11:53:25;4.80;74.00
40952;DHT22;26682;51.660;19.338;2023-03-01T11:56:38;4.70;71.20
40952;DHT22;26682;51.660;19.338;2023-03-01T11:59:59;4.70;71.40
40952;DHT22;26682;51.660;19.338;2023-03-01T12:06:26;4.90;70.50
40952;DHT22;26682;51.660;19.338;2023-03-01T12:15:26;4.80;66.40
40952;DHT22;26682;51.660;19.338;2023-03-01T12:28:18;5.10;67.60
40952;DHT22;26682;51.660;19.338;2023-03-01T12:34:14;5.30;68.00
40952;DHT22;26682;51.660;19.338;2023-03-01T12:37:21;5.40;68.60
40952;DHT22;26682;51.660;19.338;2023-03-01T12:46:21;5.10;64.10
40952;DHT22;26682;51.660;19.338;2023-03-01T12:49:16;5.10;66.90
40952;DHT22;26682;51.660;19.338;2023-03-01T12:52:15;5.20;66.90
40952;DHT22;26682;51.660;19.338;2023-03-01T12:55:01;5.30;65.50
40952;DHT22;26682;51.660;19.338;2023-03-01T13:01:16;5.40;63.10
40952;DHT22;26682;51.660;19.338;2023-03-01T13:04:15;5.30;63.00
40952;DHT22;26682;51.660;19.338;2023-03-01T13:07:35;5.10;62.00
40952;DHT22;26682;51.660;19.338;2023-03-01T13:16:22;5.40;63.10
40952;DHT22;26682;51.660;19.338;2023-03-01T13:19:21;5.40;63.80
40952;DHT22;26682;51.660;19.338;2023-03-01T13:22:36;5.50;63.80
40952;DHT22;26682;51.660;19.338;2023-03-01T13:25:35;5.40;62.10
40952;DHT22;26682;51.660;19.338;2023-03-01T13:34:56;5.50;62.80
40952;DHT22;26682;51.660;19.338;2023-03-01T13:37:38;5.40;61.80
40952;DHT22;26682;51.660;19.338;2023-03-01T13:43:31;5.40;63.20
40952;DHT22;26682;51.660;19.338;2023-03-01T13:46:20;5.40;61.80
40952;DHT22;26682;51.660;19.338;2023-03-01T13:49:04;5.30;62.50
40952;DHT22;26682;51.660;19.338;2023-03-01T13:51:47;5.30;63.10
40952;DHT22;26682;51.660;19.338;2023-03-01T13:54:32;5.40;63.00
40952;DHT22;26682;51.660;19.338;2023-03-01T13:57:21;5.40;65.60
40952;DHT22;26682;51.660;19.338;2023-03-01T14:00:06;5.40;64.30
40952;DHT22;26682;51.660;19.338;2023-03-01T14:03:03;5.40;64.20
40952;DHT22;26682;51.660;19.338;2023-03-01T14:09:20;5.40;66.10
40952;DHT22;26682;51.660;19.338;2023-03-01T14:15:29;5.40;64.80
40952;DHT22;26682;51.660;19.338;2023-03-01T14:18:25;5.30;66.50
40952;DHT22;26682;51.660;19.338;2023-03-01T14:21:14;5.40;66.00
40952;DHT22;26682;51.660;19.338;2023-03-01T14:23:57;5.30;67.90
40952;DHT22;26682;51.660;19.338;2023-03-01T14:26:41;5.30;67.50
40952;DHT22;26682;51.660;19.338;2023-03-01T14:29:33;5.20;67.20
40952;DHT22;26682;51.660;19.338;2023-03-01T14:32:21;5.20;68.80
40952;DHT22;26682;51.660;19.338;2023-03-01T14:35:25;5.30;67.90
40952;DHT22;26682;51.660;19.338;2023-03-01T14:38:28;5.30;68.50
40952;DHT22;26682;51.660;19.338;2023-03-01T14:41:14;5.20;68.20
40952;DHT22;26682;51.660;19.338;2023-03-01T14:44:01;5.20;67.60
40952;DHT22;26682;51.660;19.338;2023-03-01T14:46:44;5.10;67.50
40952;DHT22;26682;51.660;19.338;2023-03-01T14:49:29;5.20;66.80
40952;DHT22;26682;51.660;19.338;2023-03-01T14:52:21;5.10;67.20
40952;DHT22;26682;51.660;19.338;2023-03-01T14:55:13;5.10;68.30
40952;DHT22;26682;51.660;19.338;2023-03-01T14:57:58;5.10;67.10
40952;DHT22;26682;51.660;19.338;2023-03-01T15:00:51;5.00;69.00
40952;DHT22;26682;51.660;19.338;2023-03-01T15:03:45;5.00;70.30
40952;DHT22;26682;51.660;19.338;2023-03-01T15:06:29;5.00;67.20
40952;DHT22;26682;51.660;19.338;2023-03-01T15:09:14;5.00;67.40
40952;DHT22;26682;51.660;19.338;2023-03-01T15:11:58;5.00;66.50
40952;DHT22;26682;51.660;19.338;2023-03-01T15:14:43;4.90;66.80
40952;DHT22;26682;51.660;19.338;2023-03-01T15:17:37;4.90;67.80
40952;DHT22;26682;51.660;19.338;2023-03-01T15:20:22;4.80;69.40
40952;DHT22;26682;51.660;19.338;2023-03-01T15:23:28;4.80;68.10
40952;DHT22;26682;51.660;19.338;2023-03-01T15:26:33;4.70;67.80
40952;DHT22;26682;51.660;19.338;2023-03-01T15:29:20;4.70;67.30
40952;DHT22;26682;51.660;19.338;2023-03-01T15:32:33;4.60;68.10
40952;DHT22;26682;51.660;19.338;2023-03-01T15:35:42;4.50;69.10
40952;DHT22;26682;51.660;19.338;2023-03-01T15:41:47;4.50;68.60
40952;DHT22;26682;51.660;19.338;2023-03-01T15:44:33;4.40;68.70
40952;DHT22;26682;51.660;19.338;2023-03-01T15:47:31;4.40;70.60
40952;DHT22;26682;51.660;19.338;2023-03-01T15:50:29;4.30;67.90
40952;DHT22;26682;51.660;19.338;2023-03-01T15:53:13;4.30;68.90
40952;DHT22;26682;51.660;19.338;2023-03-01T15:55:57;4.30;71.30
40952;DHT22;26682;51.660;19.338;2023-03-01T15:58:39;4.20;72.50
40952;DHT22;26682;51.660;19.338;2023-03-01T16:01:23;4.10;72.90
40952;DHT22;26682;51.660;19.338;2023-03-01T16:04:06;4.00;73.20
40952;DHT22;26682;51.660;19.338;2023-03-01T16:06:52;3.90;74.30
40952;DHT22;26682;51.660;19.338;2023-03-01T16:09:38;3.90;73.10
40952;DHT22;26682;51.660;19.338;2023-03-01T16:12:21;3.80;74.00
40952;DHT22;26682;51.660;19.338;2023-03-01T16:15:04;3.60;74.00
40952;DHT22;26682;51.660;19.338;2023-03-01T16:17:47;3.50;75.90
40952;DHT22;26682;51.660;19.338;2023-03-01T16:20:36;3.40;75.40
40952;DHT22;26682;51.660;19.338;2023-03-01T16:23:19;3.30;75.20
40952;DHT22;26682;51.660;19.338;2023-03-01T16:26:02;3.20;72.20
40952;DHT22;26682;51.660;19.338;2023-03-01T16:28:45;3.10;74.10
40952;DHT22;26682;51.660;19.338;2023-03-01T16:31:28;3.00;73.00
40952;DHT22;26682;51.660;19.338;2023-03-01T16:34:12;2.90;75.30
40952;DHT22;26682;51.660;19.338;2023-03-01T16:36:55;2.80;71.70
40952;DHT22;26682;51.660;19.338;2023-03-01T16:39:38;2.70;72.50
40952;DHT22;26682;51.660;19.338;2023-03-01T16:42:21;2.60;72.70
40952;DHT22;26682;51.660;19.338;2023-03-01T16:45:03;2.60;74.20
40952;DHT22;26682;51.660;19.338;2023-03-01T16:47:55;2.50;74.80
40952;DHT22;26682;51.660;19.338;2023-03-01T16:50:40;2.40;72.70
40952;DHT22;26682;51.660;19.338;2023-03-01T16:53:23;2.30;76.30
40952;DHT22;26682;51.660;19.338;2023-03-01T16:56:07;2.20;78.10
40952;DHT22;26682;51.660;19.338;2023-03-01T16:58:50;2.10;77.70
40952;DHT22;26682;51.660;19.338;2023-03-01T17:01:32;2.00;79.20
40952;DHT22;26682;51.660;19.338;2023-03-01T17:04:21;1.90;78.40
40952;DHT22;26682;51.660;19.338;2023-03-01T17:07:04;1.80;71.70
40952;DHT22;26682;51.660;19.338;2023-03-01T17:09:47;1.80;74.20
40952;DHT22;26682;51.660;19.338;2023-03-01T17:12:30;1.70;65.60
40952;DHT22;26682;51.660;19.338;2023-03-01T17:15:14;1.60;63.80
40952;DHT22;26682;51.660;19.338;2023-03-01T17:18:00;1.60;66.30
40952;DHT22;26682;51.660;19.338;2023-03-01T17:20:43;1.50;68.90
40952;DHT22;26682;51.660;19.338;2023-03-01T17:23:29;1.40;55.00
40952;DHT22;26682;51.660;19.338;2023-03-01T17:26:12;1.30;56.90
40952;DHT22;26682;51.660;19.338;2023-03-01T17:28:56;1.30;57.70
40952;DHT22;26682;51.660;19.338;2023-03-01T17:31:40;1.20;57.70
40952;DHT22;26682;51.660;19.338;2023-03-01T17:34:24;1.20;54.50
40952;DHT22;26682;51.660;19.338;2023-03-01T17:37:07;1.20;55.20
40952;DHT22;26682;51.660;19.338;2023-03-01T17:39:49;1.10;58.40
40952;DHT22;26682;51.660;19.338;2023-03-01T17:42:32;1.00;62.60
40952;DHT22;26682;51.660;19.338;2023-03-01T17:45:14;0.90;68.10
40952;DHT22;26682;51.660;19.338;2023-03-01T17:47:57;0.90;75.40
40952;DHT22;26682;51.660;19.338;2023-03-01T17:50:40;0.80;75.60
40952;DHT22;26682;51.660;19.338;2023-03-01T17:53:23;0.80;56.60
40952;DHT22;26682;51.660;19.338;2023-03-01T17:56:05;0.80;64.50
40952;DHT22;26682;51.660;19.338;2023-03-01T17:58:49;0.70;64.10
40952;DHT22;26682;51.660;19.338;2023-03-01T18:01:32;0.70;18.70
40952;DHT22;26682;51.660;19.338;2023-03-01T18:04:17;0.70;34.00
40952;DHT22;26682;51.660;19.338;2023-03-01T18:07:01;0.60;26.20
40952;DHT22;26682;51.660;19.338;2023-03-01T18:09:43;0.60;42.60
40952;DHT22;26682;51.660;19.338;2023-03-01T18:12:26;0.60;33.50
40952;DHT22;26682;51.660;19.338;2023-03-01T18:15:09;0.50;28.20
40952;DHT22;26682;51.660;19.338;2023-03-01T18:17:52;0.40;27.30
40952;DHT22;26682;51.660;19.338;2023-03-01T18:20:34;0.30;22.80
40952;DHT22;26682;51.660;19.338;2023-03-01T18:23:17;0.20;23.40
40952;DHT22;26682;51.660;19.338;2023-03-01T18:26:10;0.20;17.60
40952;DHT22;26682;51.660;19.338;2023-03-01T18:28:53;0.10;18.00
40952;DHT22;26682;51.660;19.338;2023-03-01T18:31:36;0.00;20.50
40952;DHT22;26682;51.660;19.338;2023-03-01T18:34:18;-0.10;19.40
40952;DHT22;26682;51.660;19.338;2023-03-01T18:37:01;-0.10;13.50
40952;DHT22;26682;51.660;19.338;2023-03-01T18:39:53;-0.20;8.20
40952;DHT22;26682;51.660;19.338;2023-03-01T18:42:35;-0.20;1.00
40952;DHT22;26682;51.660;19.338;2023-03-01T18:45:18;-0.20;1.00